Time;durP1;ratioP1;P1;durP2;ratioP2;P2;SDS_P1;SDS_P2;PMS_P1;PMS_P2;Temp;Humidity;BMP_temperature;BMP_pressure;BME280_temperature;BME280_humidity;BME280_pressure;Samples;Min_cycle;Max_cycle;Signal;HPM_P1;HPM_P2
2023/06/27 00:01:26;;;;;;;2.88;1.58;;;18.30;99.90;;;;;;5034549;28;20529;-55
2023/06/27 00:03:52;;;;;;;9.75;2.35;;;18.30;99.90;;;;;;5034505;28;20025;-53
2023/06/27 00:06:19;;;;;;;4.28;2.13;;;18.30;99.90;;;;;;5034655;28;20458;-53
2023/06/27 00:08:46;;;;;;;3.55;1.38;;;18.30;99.90;;;;;;5011889;28;20367;-55
2023/06/27 00:11:12;;;;;;;4.28;1.80;;;18.30;99.90;;;;;;5012832;28;20556;-54
2023/06/27 00:13:41;;;;;;;3.45;1.42;;;18.30;99.90;;;;;;5013931;28;20089;-56
2023/06/27 00:16:12;;;;;;;1.98;1.20;;;18.40;99.90;;;;;;5014541;28;20088;-55
2023/06/27 00:18:42;;;;;;;7.18;2.00;;;18.40;99.90;;;;;;5014258;28;20046;-54
2023/06/27 00:21:07;;;;;;;3.90;1.98;;;18.40;99.90;;;;;;5014321;28;20030;-53
2023/06/27 00:23:33;;;;;;;3.92;1.55;;;18.40;99.90;;;;;;5014558;28;20037;-54
2023/06/27 00:26:03;;;;;;;3.55;1.58;;;18.40;99.90;;;;;;5014203;28;20080;-55
2023/06/27 00:28:30;;;;;;;4.40;1.98;;;18.40;99.90;;;;;;5014317;28;20050;-54
2023/06/27 00:30:56;;;;;;;5.05;1.73;;;18.40;99.90;;;;;;5014398;28;20034;-54
2023/06/27 00:33:21;;;;;;;4.32;1.55;;;18.40;99.90;;;;;;5014453;28;20360;-55
2023/06/27 00:35:47;;;;;;;11.23;2.47;;;18.50;99.90;;;;;;5012231;28;20018;-56
2023/06/27 00:38:12;;;;;;;8.93;1.63;;;18.50;99.90;;;;;;5012244;28;20076;-51
2023/06/27 00:40:38;;;;;;;12.18;2.03;;;18.50;99.90;;;;;;5029009;28;20025;-54
2023/06/27 00:43:04;;;;;;;6.85;1.67;;;18.50;99.90;;;;;;5031959;28;20029;-58
2023/06/27 00:45:29;;;;;;;6.38;1.85;;;18.50;99.90;;;;;;5013941;28;20390;-55
2023/06/27 00:48:00;;;;;;;7.68;2.38;;;18.40;99.90;;;;;;5014205;28;20033;-54
2023/06/27 00:50:27;;;;;;;10.20;1.95;;;18.50;99.90;;;;;;5014134;28;20124;-53
2023/06/27 00:52:54;;;;;;;11.13;2.55;;;18.40;99.90;;;;;;5013639;28;20026;-54
2023/06/27 00:55:21;;;;;;;8.40;3.67;;;18.50;99.90;;;;;;5013987;28;20477;-55
2023/06/27 00:57:48;;;;;;;2.22;2.03;;;18.50;99.90;;;;;;5027633;28;20372;-55
2023/06/27 01:00:15;;;;;;;6.53;2.85;;;18.50;99.90;;;;;;5032190;28;20406;-55
2023/06/27 01:02:41;;;;;;;6.07;2.22;;;18.50;99.90;;;;;;5013553;28;20030;-55
2023/06/27 01:05:07;;;;;;;3.20;2.15;;;18.50;99.90;;;;;;5012778;28;20462;-54
2023/06/27 01:08:07;;;;;;;4.07;1.67;;;18.40;99.90;;;;;;5013373;28;20053;-49
2023/06/27 01:10:43;;;;;;;6.53;1.98;;;18.40;99.90;;;;;;5013373;28;20030;-55
2023/06/27 01:13:23;;;;;;;6.38;1.90;;;18.40;99.90;;;;;;5013521;28;20022;-54
2023/06/27 01:15:50;;;;;;;5.28;2.45;;;18.40;99.90;;;;;;5013786;28;20083;-55
2023/06/27 01:18:16;;;;;;;5.65;2.10;;;18.30;99.90;;;;;;5013213;28;20048;-56
2023/06/27 01:20:45;;;;;;;3.67;1.70;;;18.30;99.90;;;;;;5013351;28;20030;-54
2023/06/27 01:23:18;;;;;;;4.70;1.83;;;18.30;99.90;;;;;;5012997;28;20030;-53
2023/06/27 01:25:44;;;;;;;4.40;2.60;;;18.30;99.90;;;;;;5013367;28;20040;-54
2023/06/27 01:28:14;;;;;;;4.97;1.92;;;18.30;99.90;;;;;;5013142;28;20030;-53
2023/06/27 01:30:40;;;;;;;9.32;3.45;;;18.20;99.90;;;;;;5013358;28;20033;-53
2023/06/27 01:33:17;;;;;;;7.87;2.93;;;18.30;99.90;;;;;;5013544;28;20080;-52
2023/06/27 01:35:54;;;;;;;3.78;1.63;;;18.20;99.90;;;;;;5013245;28;20502;-53
2023/06/27 01:38:27;;;;;;;6.00;2.40;;;18.20;99.90;;;;;;5011927;28;20064;-55
2023/06/27 01:40:55;;;;;;;5.75;1.95;;;18.20;99.90;;;;;;5013405;28;20026;-55
2023/06/27 01:43:23;;;;;;;2.65;1.70;;;18.10;99.90;;;;;;5013066;28;20048;-54
2023/06/27 01:45:49;;;;;;;2.65;1.52;;;18.10;99.90;;;;;;5013049;28;20088;-55
2023/06/27 01:48:16;;;;;;;3.53;2.37;;;18.10;99.90;;;;;;5013298;28;20026;-55
2023/06/27 01:50:42;;;;;;;4.53;1.67;;;18.10;99.90;;;;;;5012957;28;20664;-52
2023/06/27 01:53:07;;;;;;;5.85;1.95;;;18.00;99.90;;;;;;5012893;28;20025;-53
2023/06/27 01:55:33;;;;;;;9.90;2.72;;;18.00;99.90;;;;;;5013150;28;20411;-52
2023/06/27 01:58:00;;;;;;;5.35;2.30;;;18.00;99.90;;;;;;5013226;28;20510;-54
2023/06/27 02:00:27;;;;;;;7.50;2.53;;;18.00;99.90;;;;;;5012900;28;20030;-53
2023/06/27 02:02:52;;;;;;;7.30;2.38;;;18.00;99.90;;;;;;5011627;28;20081;-54
2023/06/27 02:05:18;;;;;;;5.97;1.90;;;18.00;99.90;;;;;;5013143;28;20057;-53
2023/06/27 02:07:44;;;;;;;4.35;2.50;;;18.00;99.90;;;;;;5009548;28;20034;-54
2023/06/27 02:10:10;;;;;;;9.43;2.75;;;18.00;99.90;;;;;;5012812;28;20374;-53
2023/06/27 02:12:35;;;;;;;5.32;2.55;;;18.00;99.90;;;;;;5011333;28;20109;-53
2023/06/27 02:15:01;;;;;;;5.40;1.98;;;17.90;99.90;;;;;;5010820;28;20031;-55
2023/06/27 02:17:27;;;;;;;11.00;2.55;;;17.90;99.90;;;;;;5011590;28;20042;-50
2023/06/27 02:19:52;;;;;;;14.45;3.05;;;17.90;99.90;;;;;;5012072;28;20036;-54
2023/06/27 02:22:18;;;;;;;6.90;2.70;;;17.80;99.90;;;;;;5011770;28;20084;-53
2023/06/27 02:24:44;;;;;;;7.55;3.53;;;17.80;99.90;;;;;;5011036;28;20437;-54
2023/06/27 02:27:10;;;;;;;5.22;2.42;;;17.80;99.90;;;;;;5011750;28;20470;-57
2023/06/27 02:29:35;;;;;;;9.20;2.65;;;17.80;99.90;;;;;;5013842;28;20084;-55
2023/06/27 02:32:01;;;;;;;11.52;3.35;;;17.80;99.90;;;;;;5014335;28;20037;-53
2023/06/27 02:34:28;;;;;;;4.93;2.42;;;17.70;99.90;;;;;;5013367;28;20024;-54
2023/06/27 02:36:53;;;;;;;7.63;3.50;;;17.70;99.90;;;;;;5016732;28;20028;-54
2023/06/27 02:39:19;;;;;;;6.32;2.33;;;17.70;99.90;;;;;;5014480;28;20109;-53
2023/06/27 02:41:44;;;;;;;8.65;2.25;;;17.70;99.90;;;;;;5035950;28;20044;-54
2023/06/27 02:44:10;;;;;;;10.43;2.20;;;17.70;99.90;;;;;;5018009;28;20450;-55
2023/06/27 02:46:36;;;;;;;3.67;2.15;;;17.70;99.90;;;;;;5027640;28;20026;-54
2023/06/27 02:49:02;;;;;;;8.05;2.58;;;17.70;99.90;;;;;;5036047;28;20470;-53
2023/06/27 02:51:27;;;;;;;3.10;2.28;;;17.70;99.90;;;;;;5036106;28;20014;-53
2023/06/27 02:53:53;;;;;;;3.63;2.38;;;17.60;99.90;;;;;;5035794;28;20231;-53
2023/06/27 02:56:18;;;;;;;4.88;2.25;;;17.60;99.90;;;;;;5035758;28;20037;-54
2023/06/27 02:58:44;;;;;;;8.18;2.30;;;17.60;99.90;;;;;;5035763;28;20532;-54
2023/06/27 03:01:10;;;;;;;16.52;3.22;;;17.50;99.90;;;;;;5035971;28;20096;-54
2023/06/27 03:03:35;;;;;;;13.50;2.50;;;17.50;99.90;;;;;;5035938;28;20025;-55
2023/06/27 03:06:08;;;;;;;10.32;3.00;;;17.50;99.90;;;;;;5035852;28;20026;-54
2023/06/27 03:08:35;;;;;;;5.28;2.60;;;17.50;99.90;;;;;;5021144;28;20030;-52
2023/06/27 03:11:00;;;;;;;9.23;2.58;;;17.50;99.90;;;;;;5015950;28;20415;-54
2023/06/27 03:13:26;;;;;;;5.03;1.98;;;17.50;99.90;;;;;;5014420;28;20014;-54
2023/06/27 03:15:52;;;;;;;23.40;3.35;;;17.60;99.90;;;;;;5015897;28;20080;-53
2023/06/27 03:18:17;;;;;;;7.70;2.25;;;17.60;99.90;;;;;;5015496;28;20129;-51
2023/06/27 03:20:43;;;;;;;4.82;2.75;;;17.60;99.90;;;;;;5015613;28;20029;-50
2023/06/27 03:23:09;;;;;;;13.80;3.50;;;17.70;99.90;;;;;;5015474;28;20036;-54
2023/06/27 03:25:34;;;;;;;9.75;3.08;;;17.70;99.90;;;;;;5015344;28;20030;-53
2023/06/27 03:28:02;;;;;;;12.88;3.67;;;17.70;99.90;;;;;;5015364;28;20060;-53
2023/06/27 03:30:28;;;;;;;6.60;3.08;;;17.80;99.90;;;;;;5015355;28;20079;-54
2023/06/27 03:32:53;;;;;;;9.70;3.10;;;17.80;99.90;;;;;;5013845;28;20034;-51
2023/06/27 03:35:19;;;;;;;5.10;2.42;;;17.80;99.90;;;;;;5013767;28;20074;-54
2023/06/27 03:37:44;;;;;;;11.10;3.20;;;17.80;99.90;;;;;;5014741;28;20418;-53
2023/06/27 03:40:11;;;;;;;4.85;2.25;;;17.80;99.90;;;;;;5014152;28;20104;-53
2023/06/27 03:42:37;;;;;;;9.73;2.25;;;17.80;99.90;;;;;;5014354;28;20025;-56
2023/06/27 03:45:03;;;;;;;7.10;2.33;;;17.80;99.90;;;;;;5014609;28;20061;-54
2023/06/27 03:47:32;;;;;;;4.00;2.00;;;17.80;99.90;;;;;;5012414;28;20037;-54
2023/06/27 03:49:58;;;;;;;10.77;2.97;;;17.80;99.90;;;;;;5013045;28;20057;-54
2023/06/27 03:52:23;;;;;;;8.93;3.03;;;17.80;99.90;;;;;;5014027;28;20088;-53
2023/06/27 03:54:49;;;;;;;10.48;2.47;;;17.80;99.90;;;;;;5014534;28;20018;-52
2023/06/27 03:57:15;;;;;;;3.53;2.30;;;17.80;99.90;;;;;;5014541;28;20088;-54
2023/06/27 03:59:40;;;;;;;5.85;1.50;;;17.80;99.90;;;;;;5013872;28;20105;-53
2023/06/27 04:02:06;;;;;;;16.92;3.22;;;17.80;99.90;;;;;;5012185;28;20100;-54
2023/06/27 04:04:32;;;;;;;9.20;2.53;;;17.80;99.90;;;;;;5012870;28;20022;-53
2023/06/27 04:06:58;;;;;;;7.60;2.30;;;17.80;99.90;;;;;;5021049;28;20025;-54
2023/06/27 04:09:23;;;;;;;4.15;1.52;;;17.80;99.90;;;;;;5014457;28;20033;-53
2023/06/27 04:11:49;;;;;;;3.45;1.63;;;17.80;99.90;;;;;;5028822;28;20013;-55
2023/06/27 04:14:17;;;;;;;4.05;1.75;;;17.90;99.90;;;;;;5034326;28;20040;-53
2023/06/27 04:16:44;;;;;;;5.47;2.40;;;17.90;99.90;;;;;;5015542;28;20482;-53
2023/06/27 04:19:09;;;;;;;6.00;2.60;;;17.90;99.90;;;;;;5014630;28;20037;-57
2023/06/27 04:21:35;;;;;;;7.13;2.30;;;17.90;99.90;;;;;;5014678;28;20491;-54
2023/06/27 04:24:00;;;;;;;8.02;2.08;;;18.00;99.90;;;;;;5014256;28;20019;-55
2023/06/27 04:26:26;;;;;;;8.02;3.22;;;18.00;99.90;;;;;;5014619;28;20390;-53
2023/06/27 04:28:52;;;;;;;12.02;2.65;;;18.00;99.90;;;;;;5014456;28;20056;-53
2023/06/27 04:31:18;;;;;;;10.65;2.45;;;18.00;99.90;;;;;;5014487;28;20022;-54
2023/06/27 04:33:43;;;;;;;6.43;2.80;;;18.10;99.90;;;;;;5014053;28;20018;-53
2023/06/27 04:36:10;;;;;;;10.40;3.00;;;18.00;99.90;;;;;;5014424;28;20046;-49
2023/06/27 04:38:39;;;;;;;10.27;3.10;;;18.10;99.90;;;;;;5013821;28;20077;-53
2023/06/27 04:41:09;;;;;;;11.15;3.05;;;18.10;99.90;;;;;;5014033;28;20033;-51
2023/06/27 04:43:35;;;;;;;10.60;3.42;;;18.10;99.90;;;;;;5014037;28;20104;-52
2023/06/27 04:46:01;;;;;;;8.60;2.88;;;18.10;99.90;;;;;;5013951;28;20032;-53
2023/06/27 04:48:28;;;;;;;12.82;3.33;;;18.00;99.90;;;;;;5012673;28;20072;-54
2023/06/27 04:50:54;;;;;;;5.70;2.80;;;18.00;99.90;;;;;;5029042;28;20030;-54
2023/06/27 04:53:21;;;;;;;11.98;3.50;;;17.90;99.90;;;;;;5013895;28;20443;-54
2023/06/27 04:55:48;;;;;;;9.93;3.40;;;17.90;99.90;;;;;;5013822;28;20026;-51
2023/06/27 04:58:14;;;;;;;7.30;2.47;;;17.90;99.90;;;;;;5013321;28;20072;-51
2023/06/27 05:00:39;;;;;;;11.25;2.88;;;17.90;99.90;;;;;;5013583;28;20478;-53
2023/06/27 05:03:05;;;;;;;6.88;2.85;;;17.90;99.90;;;;;;5013643;28;20088;-55
2023/06/27 05:05:34;;;;;;;3.63;2.00;;;17.90;99.90;;;;;;5013518;28;20072;-52
2023/06/27 05:08:03;;;;;;;6.60;2.92;;;17.90;99.90;;;;;;5013598;28;20386;-53
2023/06/27 05:10:33;;;;;;;8.95;3.17;;;17.90;99.90;;;;;;5013469;28;20486;-51
2023/06/27 05:13:00;;;;;;;7.88;2.85;;;18.00;99.90;;;;;;5013469;28;20152;-51
2023/06/27 05:15:27;;;;;;;5.18;2.60;;;17.90;99.90;;;;;;5013674;28;20367;-52
2023/06/27 05:18:13;;;;;;;14.93;3.60;;;18.00;99.90;;;;;;5013353;28;20050;-52
2023/06/27 05:20:40;;;;;;;11.60;4.35;;;18.00;99.90;;;;;;5013097;28;20032;-53
2023/06/27 05:23:05;;;;;;;7.03;2.78;;;18.00;99.90;;;;;;5013575;28;20033;-51
2023/06/27 05:25:32;;;;;;;7.85;2.88;;;18.00;99.90;;;;;;5012151;28;20038;-51
2023/06/27 05:27:58;;;;;;;7.47;2.60;;;18.00;99.90;;;;;;5028438;28;20033;-54
2023/06/27 05:30:25;;;;;;;9.27;3.13;;;18.00;99.90;;;;;;5030725;28;20117;-53
2023/06/27 05:32:50;;;;;;;7.63;3.10;;;18.00;99.90;;;;;;5013231;28;20025;-54
2023/06/27 05:35:16;;;;;;;7.72;2.47;;;18.10;99.90;;;;;;5013039;28;20471;-53
2023/06/27 05:37:41;;;;;;;9.48;3.72;;;18.10;99.90;;;;;;5026047;28;20018;-53
2023/06/27 05:40:08;;;;;;;10.93;2.70;;;18.10;99.90;;;;;;5028380;28;20030;-54
2023/06/27 05:42:35;;;;;;;9.63;3.22;;;18.20;99.90;;;;;;5018733;28;20057;-54
2023/06/27 05:45:00;;;;;;;10.70;2.67;;;18.20;99.90;;;;;;5032830;28;20113;-52
2023/06/27 05:47:26;;;;;;;7.55;3.20;;;18.20;99.90;;;;;;5020107;28;20045;-58
2023/06/27 05:49:52;;;;;;;10.38;3.55;;;18.20;99.90;;;;;;5013171;28;20029;-54
2023/06/27 05:52:18;;;;;;;7.30;3.25;;;18.30;99.90;;;;;;5013170;28;20047;-54
2023/06/27 05:54:43;;;;;;;11.20;3.00;;;18.40;99.90;;;;;;5019942;28;20022;-56
2023/06/27 05:57:09;;;;;;;8.38;3.45;;;18.40;99.90;;;;;;5033182;28;20102;-56
2023/06/27 05:59:36;;;;;;;7.93;2.72;;;18.50;99.90;;;;;;5026979;28;20041;-56
2023/06/27 06:02:01;;;;;;;6.55;2.97;;;18.60;99.90;;;;;;5021228;28;20028;-56
2023/06/27 06:04:27;;;;;;;5.47;2.50;;;18.70;99.90;;;;;;5032546;28;20033;-57
2023/06/27 06:06:53;;;;;;;6.22;2.85;;;18.70;99.90;;;;;;5017412;28;20115;-57
2023/06/27 06:09:19;;;;;;;8.10;2.92;;;18.80;99.90;;;;;;5014931;28;20033;-57
2023/06/27 06:11:44;;;;;;;4.90;2.10;;;18.80;99.90;;;;;;5017082;28;20030;-57
2023/06/27 06:14:10;;;;;;;6.32;1.98;;;19.10;99.90;;;;;;5016646;28;20101;-57
2023/06/27 06:16:36;;;;;;;2.33;1.60;;;19.90;99.90;;;;;;5016816;28;20018;-57
2023/06/27 06:19:02;;;;;;;4.95;1.70;;;21.40;99.90;;;;;;5016894;28;20025;-57
2023/06/27 06:21:28;;;;;;;5.85;1.52;;;22.20;99.90;;;;;;5016774;28;20022;-61
2023/06/27 06:23:54;;;;;;;2.67;1.38;;;22.80;99.90;;;;;;5016471;28;20609;-57
2023/06/27 06:26:19;;;;;;;5.10;1.80;;;22.80;99.90;;;;;;5016793;28;20022;-57
2023/06/27 06:28:46;;;;;;;3.72;1.15;;;22.30;99.90;;;;;;5016517;28;20049;-56
2023/06/27 06:31:14;;;;;;;9.93;1.42;;;22.30;99.90;;;;;;5014349;28;20475;-57
2023/06/27 06:33:40;;;;;;;5.72;1.50;;;23.00;99.90;;;;;;5013649;28;20021;-60
2023/06/27 06:36:07;;;;;;;6.28;1.83;;;23.40;99.90;;;;;;5013959;28;20022;-57
2023/06/27 06:38:32;;;;;;;7.03;1.33;;;23.40;99.90;;;;;;5015294;28;20493;-57
2023/06/27 06:40:58;;;;;;;2.17;0.95;;;23.20;99.90;;;;;;5014137;28;20029;-57
2023/06/27 06:43:25;;;;;;;3.67;1.30;;;22.40;99.90;;;;;;4998317;28;20161;-57
2023/06/27 06:45:52;;;;;;;4.22;0.90;;;21.80;99.90;;;;;;5015373;28;20525;-57
2023/06/27 06:48:21;;;;;;;10.27;1.58;;;21.50;99.90;;;;;;5014050;28;20145;-57
2023/06/27 06:50:49;;;;;;;5.90;1.23;;;21.70;99.90;;;;;;5012706;28;20038;-58
2023/06/27 06:53:14;;;;;;;2.40;1.05;;;21.50;99.90;;;;;;5016256;28;20034;-57
2023/06/27 06:55:40;;;;;;;2.30;1.00;;;21.70;99.90;;;;;;5016015;28;20497;-58
2023/06/27 06:58:06;;;;;;;9.38;1.25;;;21.40;99.90;;;;;;5015957;28;20033;-57
2023/06/27 07:00:31;;;;;;;4.30;1.23;;;21.30;99.90;;;;;;5015091;28;20388;-58
2023/06/27 07:02:57;;;;;;;4.30;0.82;;;21.00;99.90;;;;;;5015914;28;20035;-58
2023/06/27 07:05:23;;;;;;;4.53;1.10;;;21.30;99.90;;;;;;5013689;28;20077;-58
2023/06/27 07:07:49;;;;;;;12.82;1.33;;;21.40;99.90;;;;;;5014684;28;20034;-57
2023/06/27 07:10:15;;;;;;;5.25;1.20;;;22.10;99.90;;;;;;5011979;28;20120;-57
2023/06/27 07:12:41;;;;;;;5.07;0.80;;;22.30;99.90;;;;;;5020299;28;20434;-58
2023/06/27 07:15:07;;;;;;;2.50;0.98;;;22.30;99.90;;;;;;5030906;28;20025;-58
2023/06/27 07:17:33;;;;;;;3.60;1.10;;;22.00;99.90;;;;;;5015497;28;20513;-58
2023/06/27 07:19:59;;;;;;;2.33;1.00;;;21.70;99.90;;;;;;5015255;28;20102;-58
2023/06/27 07:22:25;;;;;;;3.95;1.10;;;21.60;99.90;;;;;;5015593;28;20029;-58
2023/06/27 07:24:51;;;;;;;4.22;1.27;;;21.50;99.90;;;;;;5015498;28;20034;-58
2023/06/27 07:27:16;;;;;;;3.05;1.50;;;22.10;99.90;;;;;;5015461;28;20475;-57
2023/06/27 07:29:42;;;;;;;3.80;1.33;;;22.50;99.90;;;;;;5015302;28;20541;-58
2023/06/27 07:32:10;;;;;;;17.85;1.88;;;22.60;99.90;;;;;;5015392;28;20494;-59
2023/06/27 07:34:35;;;;;;;1.20;0.55;;;22.60;99.90;;;;;;5014079;28;20486;-58
2023/06/27 07:37:02;;;;;;;1.42;0.70;;;22.50;99.90;;;;;;5013763;28;20344;-58
2023/06/27 07:39:28;;;;;;;1.50;0.70;;;22.20;99.90;;;;;;5011748;28;20097;-57
2023/06/27 07:41:54;;;;;;;6.03;1.42;;;21.50;99.90;;;;;;5014620;28;20477;-58
2023/06/27 07:44:20;;;;;;;3.72;0.95;;;21.40;99.90;;;;;;5014528;28;20065;-58
2023/06/27 07:46:45;;;;;;;2.67;0.70;;;21.10;99.90;;;;;;5014982;28;20501;-58
2023/06/27 07:49:11;;;;;;;2.17;0.65;;;21.10;99.90;;;;;;5012146;28;20133;-58
2023/06/27 07:51:36;;;;;;;3.47;0.65;;;21.50;99.90;;;;;;5011163;28;20033;-58
2023/06/27 07:54:03;;;;;;;8.35;0.80;;;21.50;99.90;;;;;;5011591;28;20026;-58
2023/06/27 07:56:29;;;;;;;5.38;0.77;;;21.30;99.90;;;;;;5017936;28;20080;-59
2023/06/27 07:58:55;;;;;;;6.05;0.88;;;21.40;99.90;;;;;;5014801;28;20018;-58
2023/06/27 08:01:21;;;;;;;1.58;0.68;;;21.80;99.90;;;;;;5013391;28;20022;-58
2023/06/27 08:03:46;;;;;;;4.85;0.65;;;21.70;99.90;;;;;;5014618;28;20053;-58
2023/06/27 08:06:12;;;;;;;0.98;0.55;;;21.80;99.90;;;;;;5015037;28;20022;-58
2023/06/27 08:08:38;;;;;;;0.60;0.60;;;21.80;99.90;;;;;;5014674;28;20026;-59
2023/06/27 08:11:04;;;;;;;2.88;0.88;;;21.80;99.90;;;;;;5014584;28;20064;-59
2023/06/27 08:13:30;;;;;;;4.03;0.85;;;21.80;99.90;;;;;;5014649;28;20022;-57
2023/06/27 08:15:56;;;;;;;1.48;0.68;;;21.60;99.90;;;;;;5015322;28;20022;-56
2023/06/27 08:18:21;;;;;;;0.80;0.60;;;21.20;99.90;;;;;;5011923;28;20050;-58
2023/06/27 08:20:47;;;;;;;11.73;1.02;;;21.00;99.90;;;;;;5013236;28;20029;-58
2023/06/27 08:23:13;;;;;;;6.05;0.47;;;20.80;99.90;;;;;;5014379;28;20030;-57
2023/06/27 08:25:38;;;;;;;3.55;0.50;;;20.70;99.90;;;;;;5014571;28;20108;-58
2023/06/27 08:28:04;;;;;;;0.93;0.63;;;20.80;99.90;;;;;;5014219;28;20510;-57
2023/06/27 08:30:31;;;;;;;4.57;1.05;;;20.80;99.90;;;;;;5014182;28;20029;-57
2023/06/27 08:32:56;;;;;;;2.97;0.80;;;20.80;99.90;;;;;;5013566;28;20033;-54
2023/06/27 08:35:24;;;;;;;2.67;1.05;;;20.90;99.90;;;;;;5011257;28;20491;-53
2023/06/27 08:37:49;;;;;;;2.58;0.70;;;21.10;99.90;;;;;;5019513;28;20118;-57
2023/06/27 08:40:38;;;;;;;2.55;1.00;;;21.20;99.90;;;;;;5033790;28;20026;-56
2023/06/27 08:43:05;;;;;;;1.00;0.47;;;21.00;99.90;;;;;;5017519;28;20033;-58
2023/06/27 08:45:31;;;;;;;5.93;0.63;;;21.00;99.90;;;;;;5014024;28;20394;-58
2023/06/27 08:47:58;;;;;;;1.50;1.10;;;20.80;99.90;;;;;;5013828;28;20101;-58
2023/06/27 08:50:26;;;;;;;2.47;0.70;;;20.80;99.90;;;;;;5022396;28;20466;-58
2023/06/27 08:52:56;;;;;;;1.33;0.52;;;20.80;99.90;;;;;;5033587;28;20023;-60
2023/06/27 08:55:47;;;;;;;3.22;0.50;;;20.50;99.90;;;;;;5033569;28;20021;-58
2023/06/27 08:58:15;;;;;;;15.93;1.45;;;20.40;99.90;;;;;;5033443;28;20024;-57
2023/06/27 09:00:44;;;;;;;2.53;0.70;;;20.20;99.90;;;;;;5033716;28;20496;-57
2023/06/27 09:03:10;;;;;;;3.05;0.77;;;20.10;99.90;;;;;;5032225;28;20034;-58
2023/06/27 09:05:37;;;;;;;2.78;0.90;;;20.10;99.90;;;;;;5033496;28;20036;-60
2023/06/27 09:08:02;;;;;;;5.15;0.80;;;20.30;99.90;;;;;;5015866;28;20026;-58
2023/06/27 09:10:29;;;;;;;4.63;0.73;;;20.50;99.90;;;;;;5013784;28;20362;-58
2023/06/27 09:12:55;;;;;;;7.47;0.90;;;20.60;99.90;;;;;;5013777;28;20159;-58
2023/06/27 09:15:21;;;;;;;1.13;0.60;;;20.60;99.90;;;;;;5013500;28;20037;-58
2023/06/27 09:17:47;;;;;;;1.60;0.75;;;20.70;99.90;;;;;;5010666;28;20069;-58
2023/06/27 09:20:17;;;;;;;2.65;0.82;;;20.70;99.90;;;;;;5012004;28;20046;-58
2023/06/27 09:22:43;;;;;;;1.48;0.60;;;20.80;99.90;;;;;;5010620;28;20061;-58
2023/06/27 09:25:17;;;;;;;3.70;0.77;;;20.70;99.90;;;;;;5013273;28;20105;-57
2023/06/27 09:27:43;;;;;;;1.65;0.80;;;20.80;99.90;;;;;;5011845;28;20105;-57
2023/06/27 09:30:10;;;;;;;1.20;0.60;;;20.80;99.90;;;;;;5011321;28;20030;-57
2023/06/27 09:32:58;;;;;;;4.47;1.08;;;20.40;99.90;;;;;;5011130;28;20145;-56
2023/06/27 09:35:26;;;;;;;1.48;0.65;;;20.10;99.90;;;;;;5012516;28;20532;-57
2023/06/27 09:37:53;;;;;;;3.42;0.57;;;20.00;99.90;;;;;;5010885;28;20025;-57
2023/06/27 09:40:20;;;;;;;;;;;19.90;99.90;;;;;;5011420;28;20419;-58
2023/06/27 09:42:50;;;;;;;3.63;0.75;;;19.90;99.90;;;;;;5011978;28;20015;-58
2023/06/27 09:45:16;;;;;;;0.47;0.47;;;20.00;99.90;;;;;;5010071;28;20108;-57
2023/06/27 09:47:42;;;;;;;7.82;0.85;;;19.90;99.90;;;;;;5012065;28;20109;-57
2023/06/27 09:50:08;;;;;;;0.80;0.60;;;19.90;99.90;;;;;;5012283;28;20026;-57
2023/06/27 09:52:34;;;;;;;3.83;0.98;;;19.90;99.90;;;;;;5010385;28;20556;-59
2023/06/27 09:55:00;;;;;;;2.67;1.08;;;19.90;99.90;;;;;;5012100;28;20462;-58
2023/06/27 09:57:26;;;;;;;7.90;0.68;;;20.00;99.90;;;;;;5012014;28;20026;-57
2023/06/27 09:59:58;;;;;;;5.35;0.52;;;20.10;99.90;;;;;;5011193;28;20022;-58
2023/06/27 10:02:28;;;;;;;4.35;1.30;;;20.20;99.90;;;;;;5011237;28;20030;-61
2023/06/27 10:04:54;;;;;;;3.58;0.80;;;20.40;99.90;;;;;;5013248;28;20189;-57
2023/06/27 10:07:20;;;;;;;1.25;0.68;;;20.60;99.90;;;;;;5012818;28;20041;-55
2023/06/27 10:09:46;;;;;;;4.72;0.60;;;20.60;99.90;;;;;;5011991;28;20026;-58
2023/06/27 10:12:14;;;;;;;5.35;0.75;;;20.50;99.90;;;;;;5010720;28;20049;-58
2023/06/27 10:14:44;;;;;;;5.85;0.70;;;20.50;99.90;;;;;;5011291;28;20529;-58
2023/06/27 10:17:18;;;;;;;4.63;0.57;;;20.50;99.90;;;;;;5008038;28;20487;-57
2023/06/27 10:19:47;;;;;;;1.98;0.80;;;20.50;99.90;;;;;;4998060;28;20410;-57
2023/06/27 10:22:18;;;;;;;4.28;1.13;;;20.50;99.90;;;;;;5011485;28;20032;-58
2023/06/27 10:24:46;;;;;;;3.95;1.45;;;20.40;99.90;;;;;;5011354;28;20034;-56
2023/06/27 10:27:15;;;;;;;1.77;0.70;;;20.40;99.90;;;;;;5011974;28;20087;-58
2023/06/27 10:29:41;;;;;;;2.00;0.68;;;20.40;99.90;;;;;;5011159;28;20057;-57
2023/06/27 10:32:11;;;;;;;6.80;1.05;;;20.60;99.90;;;;;;5011392;28;20482;-58
2023/06/27 10:34:41;;;;;;;2.35;0.75;;;20.60;99.90;;;;;;5009562;28;20034;-58
2023/06/27 10:37:25;;;;;;;0.98;0.60;;;20.60;99.90;;;;;;5012828;28;20080;-58
2023/06/27 10:40:00;;;;;;;1.77;0.55;;;20.60;99.90;;;;;;5012016;28;20030;-58
2023/06/27 10:42:27;;;;;;;4.30;0.90;;;20.80;99.90;;;;;;5012479;28;20030;-58
2023/06/27 10:45:10;;;;;;;6.00;1.02;;;21.30;99.90;;;;;;5010903;28;20109;-58
2023/06/27 10:47:38;;;;;;;2.65;0.77;;;21.70;99.90;;;;;;5010815;28;20036;-58
2023/06/27 10:50:22;;;;;;;3.47;0.38;;;21.70;99.90;;;;;;5010406;28;20117;-56
2023/06/27 10:53:04;;;;;;;2.83;0.90;;;21.70;99.90;;;;;;5009391;28;20026;-58
2023/06/27 10:55:31;;;;;;;0.63;0.45;;;21.70;99.90;;;;;;5007812;28;20057;-56
2023/06/27 10:58:14;;;;;;;2.53;0.60;;;21.70;99.90;;;;;;5015995;28;20088;-56
2023/06/27 11:00:44;;;;;;;1.95;0.82;;;21.40;99.90;;;;;;5014996;28;20054;-55
2023/06/27 11:03:10;;;;;;;4.13;1.35;;;21.40;99.90;;;;;;5014233;28;20105;-58
2023/06/27 11:05:46;;;;;;;1.27;0.80;;;21.70;99.90;;;;;;5015838;28;20141;-56
2023/06/27 11:08:14;;;;;;;2.35;0.88;;;21.70;99.90;;;;;;5014986;28;20479;-58
2023/06/27 11:10:59;;;;;;;3.38;1.20;;;21.70;99.90;;;;;;5014150;28;20026;-57
2023/06/27 11:13:27;;;;;;;2.65;0.57;;;21.90;99.90;;;;;;5013164;28;20064;-57
2023/06/27 11:15:55;;;;;;;4.43;1.05;;;21.80;99.90;;;;;;5015719;28;20025;-57
2023/06/27 11:18:22;;;;;;;;;;;21.50;99.90;;;;;;5015283;28;20050;-56
2023/06/27 11:20:49;;;;;;;1.65;0.40;;;21.30;99.90;;;;;;5015361;28;19932;-59
2023/06/27 11:23:15;;;;;;;3.78;0.50;;;21.50;99.90;;;;;;5011824;28;20064;-57
2023/06/27 11:25:43;;;;;;;2.22;0.55;;;21.50;99.90;;;;;;5015528;28;20529;-56
2023/06/27 11:28:19;;;;;;;1.80;0.70;;;21.30;99.90;;;;;;5014771;28;20026;-57
2023/06/27 11:30:45;;;;;;;2.78;1.33;;;21.20;99.90;;;;;;5013502;28;20038;-57
2023/06/27 11:33:14;;;;;;;2.63;0.70;;;21.20;99.90;;;;;;5013892;28;20026;-57
2023/06/27 11:35:40;;;;;;;2.95;0.90;;;21.20;99.90;;;;;;5007260;28;20567;-57
2023/06/27 11:38:07;;;;;;;1.58;0.60;;;21.40;99.90;;;;;;5013926;28;20109;-57
2023/06/27 11:40:33;;;;;;;2.42;1.20;;;21.80;99.90;;;;;;5013050;28;20084;-58
2023/06/27 11:43:00;;;;;;;1.80;0.60;;;21.90;99.90;;;;;;5013121;28;20053;-58
2023/06/27 11:45:27;;;;;;;7.25;1.15;;;21.90;99.90;;;;;;5014224;28;20034;-56
2023/06/27 11:47:53;;;;;;;7.10;0.80;;;22.10;99.90;;;;;;5014498;28;20025;-57
2023/06/27 11:50:19;;;;;;;2.53;0.88;;;22.20;99.90;;;;;;5014028;28;20030;-58
2023/06/27 11:52:47;;;;;;;1.05;0.90;;;22.40;99.90;;;;;;5014408;28;20022;-58
2023/06/27 11:55:13;;;;;;;2.08;0.68;;;22.40;99.90;;;;;;5014376;28;20026;-58
2023/06/27 11:57:56;;;;;;;3.40;0.80;;;22.40;99.90;;;;;;5013868;28;20075;-57
2023/06/27 12:00:24;;;;;;;2.83;1.27;;;22.00;99.90;;;;;;5013284;28;20109;-57
2023/06/27 12:02:54;;;;;;;5.40;0.80;;;21.70;99.90;;;;;;5013184;28;20060;-57
2023/06/27 12:05:22;;;;;;;3.13;0.70;;;21.80;99.90;;;;;;5013035;28;20025;-58
2023/06/27 12:08:03;;;;;;;0.95;0.80;;;22.00;99.90;;;;;;5012189;28;20022;-57
2023/06/27 12:10:33;;;;;;;3.75;0.90;;;22.40;99.90;;;;;;5014124;28;20506;-57
2023/06/27 12:13:03;;;;;;;6.82;0.80;;;22.30;99.00;;;;;;5014084;28;20030;-58
2023/06/27 12:15:29;;;;;;;5.75;0.52;;;21.90;98.90;;;;;;5014480;28;20360;-56
2023/06/27 12:17:55;;;;;;;2.42;0.82;;;21.80;99.30;;;;;;5012309;28;20095;-57
2023/06/27 12:20:21;;;;;;;1.00;0.60;;;21.90;99.70;;;;;;5013830;28;20117;-54
2023/06/27 12:22:47;;;;;;;4.40;0.97;;;22.20;99.10;;;;;;5013497;28;20164;-56
2023/06/27 12:25:13;;;;;;;10.18;1.30;;;22.30;98.90;;;;;;5012226;28;20132;-59
2023/06/27 12:27:38;;;;;;;2.88;0.68;;;22.20;99.50;;;;;;5012899;28;20120;-58
2023/06/27 12:30:07;;;;;;;3.40;0.82;;;22.50;99.40;;;;;;5013291;28;20034;-57
2023/06/27 12:32:32;;;;;;;3.05;0.95;;;22.60;98.60;;;;;;5013647;28;20049;-55
2023/06/27 12:34:58;;;;;;;4.32;1.10;;;22.40;98.90;;;;;;5013300;28;20080;-56
2023/06/27 12:37:24;;;;;;;4.97;1.10;;;22.30;98.90;;;;;;5013266;28;20030;-56
2023/06/27 12:39:49;;;;;;;1.73;0.73;;;22.20;99.40;;;;;;5014280;28;20092;-57
2023/06/27 12:42:15;;;;;;;2.58;1.05;;;22.10;99.60;;;;;;5012913;28;20030;-57
2023/06/27 12:44:44;;;;;;;2.28;0.63;;;22.20;99.20;;;;;;5014089;28;20099;-61
2023/06/27 12:47:09;;;;;;;2.13;1.00;;;22.20;99.00;;;;;;5014093;28;20026;-56